createdAt,value
2018-05-06T00:02:14.626Z,14.80
2018-05-06T00:04:42.247Z,29.00
2018-05-06T00:07:09.818Z,18.67
2018-05-06T00:09:37.884Z,17.10
2018-05-06T00:12:05.568Z,17.63
2018-05-06T00:14:33.154Z,13.10
2018-05-06T00:17:01.065Z,21.67
2018-05-06T00:19:28.714Z,16.80
2018-05-06T00:21:56.480Z,26.13
2018-05-06T00:24:24.785Z,16.50
2018-05-06T00:26:52.416Z,16.70
2018-05-06T00:29:20.000Z,18.17
2018-05-06T00:31:47.573Z,20.87
2018-05-06T00:34:15.435Z,15.63
2018-05-06T00:36:43.123Z,14.03
2018-05-06T00:39:10.933Z,25.80
2018-05-06T00:41:38.607Z,12.20
2018-05-06T00:44:06.187Z,12.20
2018-05-06T00:46:33.774Z,12.40
2018-05-06T00:49:01.786Z,19.03
2018-05-06T00:51:29.471Z,12.83
2018-05-06T00:53:57.316Z,16.20
2018-05-06T00:56:25.082Z,21.13
2018-05-06T00:58:52.853Z,19.33
2018-05-06T01:01:20.434Z,13.83
2018-05-06T01:03:48.047Z,14.33
2018-05-06T01:06:15.676Z,13.07
2018-05-06T01:08:43.303Z,19.60
2018-05-06T01:11:11.138Z,18.23
2018-05-06T01:13:38.928Z,14.30
2018-05-06T01:16:06.529Z,13.47
2018-05-06T01:18:34.617Z,13.33
2018-05-06T01:21:02.613Z,15.57
2018-05-06T01:23:30.387Z,19.77
2018-05-06T01:25:58.000Z,19.20
2018-05-06T01:28:25.604Z,18.00
2018-05-06T01:30:53.286Z,15.90
2018-05-06T01:33:20.883Z,18.57
2018-05-06T01:35:48.492Z,15.47
2018-05-06T01:38:16.257Z,21.70
2018-05-06T01:40:44.326Z,12.77
2018-05-06T01:43:12.213Z,16.77
2018-05-06T01:45:39.921Z,16.10
2018-05-06T01:48:07.638Z,19.83
2018-05-06T01:50:35.403Z,15.17
2018-05-06T01:53:03.068Z,15.57
2018-05-06T01:55:30.920Z,16.90
2018-05-06T01:57:58.598Z,15.97
2018-05-06T02:00:26.176Z,16.20
2018-05-06T02:02:53.783Z,14.30
2018-05-06T02:05:21.377Z,20.10
2018-05-06T02:07:49.043Z,17.43
2018-05-06T02:10:16.672Z,18.50
2018-05-06T02:12:44.364Z,17.40
2018-05-06T02:15:11.956Z,13.90
2018-05-06T02:17:39.575Z,19.40
2018-05-06T02:20:07.151Z,22.23
2018-05-06T02:22:35.014Z,68.03
2018-05-06T02:25:02.644Z,130.90
2018-05-06T02:27:30.229Z,118.03
2018-05-06T02:29:57.995Z,115.27
2018-05-06T02:32:25.647Z,119.63
2018-05-06T02:34:53.235Z,119.70
2018-05-06T02:37:20.986Z,98.50
2018-05-06T02:39:48.618Z,47.90
2018-05-06T02:42:16.205Z,33.77
2018-05-06T02:44:43.783Z,25.40
2018-05-06T02:47:11.415Z,56.60
2018-05-06T02:49:39.079Z,31.73
2018-05-06T02:52:06.731Z,33.07
2018-05-06T02:54:34.342Z,32.60
2018-05-06T02:57:02.066Z,24.07
2018-05-06T02:59:29.802Z,29.53
2018-05-06T03:01:57.597Z,78.37
2018-05-06T03:04:25.187Z,111.00
2018-05-06T03:06:52.774Z,124.97
2018-05-06T03:09:20.395Z,177.67
2018-05-06T03:11:47.988Z,126.00
2018-05-06T03:14:15.627Z,148.40
2018-05-06T03:16:43.362Z,122.17
2018-05-06T03:19:11.248Z,119.03
2018-05-06T03:21:38.840Z,110.07
2018-05-06T03:24:06.568Z,123.67
2018-05-06T03:26:34.212Z,104.70
2018-05-06T03:29:01.888Z,127.03
2018-05-06T03:31:29.498Z,49.87
2018-05-06T03:33:57.075Z,39.97
2018-05-06T03:36:24.881Z,31.17
2018-05-06T03:38:52.541Z,19.97
2018-05-06T03:41:20.131Z,19.70
2018-05-06T03:43:47.768Z,24.70
2018-05-06T03:46:15.379Z,17.47
2018-05-06T03:48:42.956Z,16.50
2018-05-06T03:51:10.641Z,18.63
2018-05-06T03:53:38.272Z,22.83
2018-05-06T03:59:28.689Z,17.60
2018-05-06T04:05:03.966Z,16.20
2018-05-06T04:07:31.642Z,22.27
2018-05-06T04:09:59.484Z,42.43
2018-05-06T04:12:27.107Z,16.00
2018-05-06T04:14:54.690Z,16.93
2018-05-06T04:17:22.270Z,14.50
2018-05-06T04:19:49.960Z,17.87
2018-05-06T04:22:17.547Z,15.80
2018-05-06T04:24:45.129Z,19.73
2018-05-06T04:27:12.922Z,10.83
2018-05-06T04:29:40.598Z,19.30
2018-05-06T04:32:08.183Z,10.43
2018-05-06T04:34:35.924Z,20.60
2018-05-06T04:37:03.585Z,14.60
2018-05-06T04:39:31.238Z,15.10
2018-05-06T04:41:58.897Z,10.60
2018-05-06T04:44:26.480Z,15.50
2018-05-06T04:46:54.249Z,17.20
2018-05-06T04:49:22.096Z,11.63
2018-05-06T04:51:49.760Z,20.13
2018-05-06T04:54:17.345Z,19.53
2018-05-06T04:56:45.099Z,13.47
2018-05-06T04:59:12.683Z,15.40
2018-05-06T05:01:40.262Z,16.50
2018-05-06T05:04:08.068Z,11.07
2018-05-06T05:06:35.651Z,11.10
2018-05-06T05:09:03.403Z,9.60
2018-05-06T05:11:31.112Z,22.13
2018-05-06T05:13:58.696Z,16.90
2018-05-06T05:16:26.400Z,10.10
2018-05-06T05:18:54.024Z,13.60
2018-05-06T05:21:21.708Z,24.60
2018-05-06T05:23:49.295Z,10.20
2018-05-06T05:26:16.905Z,13.50
2018-05-06T05:28:44.487Z,16.00
2018-05-06T05:31:12.060Z,11.70
2018-05-06T05:33:39.718Z,6.77
2018-05-06T05:36:07.480Z,7.33
2018-05-06T05:38:35.155Z,6.23
2018-05-06T05:41:03.007Z,10.27
2018-05-06T05:43:30.584Z,17.97
2018-05-06T05:45:58.159Z,9.17
2018-05-06T05:48:25.791Z,13.50
2018-05-06T05:50:53.370Z,12.53
2018-05-06T05:53:20.942Z,8.70
2018-05-06T05:55:48.768Z,8.93
2018-05-06T05:58:16.353Z,14.50
2018-05-06T06:00:44.111Z,18.47
2018-05-06T06:03:11.710Z,6.80
2018-05-06T06:05:39.284Z,7.13
2018-05-06T06:08:07.073Z,17.43
2018-05-06T06:10:34.719Z,12.93
2018-05-06T06:13:02.299Z,10.47
2018-05-06T06:15:30.218Z,9.00
2018-05-06T06:17:57.793Z,13.60
2018-05-06T06:20:25.408Z,11.57
2018-05-06T06:22:53.240Z,13.23
2018-05-06T06:25:20.937Z,6.23
2018-05-06T06:27:48.579Z,8.70
2018-05-06T06:30:16.251Z,10.83
2018-05-06T06:32:43.907Z,5.60
2018-05-06T06:35:11.496Z,8.50
2018-05-06T06:37:39.071Z,19.20
2018-05-06T06:40:06.901Z,15.87
2018-05-06T06:42:34.574Z,10.83
2018-05-06T06:45:02.229Z,12.53
2018-05-06T06:47:29.837Z,17.50
2018-05-06T06:49:57.420Z,10.97
2018-05-06T06:52:25.008Z,6.00
2018-05-06T06:54:52.666Z,14.00
2018-05-06T06:57:20.342Z,9.40
2018-05-06T06:59:47.910Z,15.33
2018-05-06T07:02:15.665Z,11.97
2018-05-06T07:04:43.314Z,6.57
2018-05-06T07:07:10.990Z,8.90
2018-05-06T07:09:38.612Z,15.77
2018-05-06T07:12:06.261Z,9.80
2018-05-06T07:14:34.183Z,5.57
2018-05-06T07:17:01.843Z,10.07
2018-05-06T07:19:29.495Z,8.63
2018-05-06T07:21:57.073Z,11.77
2018-05-06T07:24:24.831Z,12.83
2018-05-06T07:26:52.664Z,8.87
2018-05-06T07:29:20.247Z,12.20
2018-05-06T07:31:48.008Z,10.10
2018-05-06T07:34:15.686Z,12.13
2018-05-06T07:36:43.345Z,11.50
2018-05-06T07:39:10.987Z,13.20
2018-05-06T07:41:38.639Z,9.43
2018-05-06T07:44:06.541Z,17.03
2018-05-06T07:46:34.184Z,5.20
2018-05-06T07:49:01.856Z,6.03
2018-05-06T07:51:29.451Z,19.23
2018-05-06T07:53:57.176Z,12.90
2018-05-06T07:56:24.834Z,10.73
2018-05-06T07:58:52.539Z,15.00
2018-05-06T08:01:20.177Z,11.33
2018-05-06T08:03:47.835Z,14.07
2018-05-06T08:06:15.410Z,13.67
2018-05-06T08:08:43.037Z,24.60
2018-05-06T08:11:10.683Z,19.33
2018-05-06T08:13:38.514Z,10.53
2018-05-06T08:16:06.145Z,23.50
2018-05-06T08:18:33.795Z,6.07
2018-05-06T08:21:01.642Z,11.20
2018-05-06T08:23:29.320Z,9.17
2018-05-06T08:25:56.923Z,10.03
2018-05-06T08:28:24.562Z,7.30
2018-05-06T08:30:52.178Z,12.53
2018-05-06T08:33:19.884Z,15.50
2018-05-06T08:35:47.532Z,37.33
2018-05-06T08:38:15.603Z,9.55
2018-05-06T08:40:43.506Z,11.35
2018-05-06T08:43:12.166Z,10.17
2018-05-06T08:45:40.056Z,15.90
2018-05-06T08:48:08.023Z,9.75
2018-05-06T08:50:36.114Z,10.70
2018-05-06T08:53:04.367Z,12.00
2018-05-06T08:55:32.429Z,6.67
2018-05-06T08:58:00.308Z,13.87
2018-05-06T09:00:28.379Z,17.17
2018-05-06T09:02:56.380Z,15.27
2018-05-06T09:05:24.247Z,11.53
2018-05-06T09:07:52.608Z,7.50
2018-05-06T09:10:20.463Z,6.67
2018-05-06T09:12:48.450Z,9.93
2018-05-06T09:15:16.267Z,20.93
2018-05-06T09:17:44.678Z,22.23
2018-05-06T09:20:12.402Z,7.13
2018-05-06T09:22:40.443Z,10.90
2018-05-06T09:25:08.304Z,8.00
2018-05-06T09:27:36.045Z,13.13
2018-05-06T09:30:03.818Z,9.07
2018-05-06T09:32:31.512Z,8.57
2018-05-06T09:34:59.179Z,9.03
2018-05-06T09:37:26.919Z,7.78
2018-05-06T09:39:54.611Z,17.52
2018-05-06T09:42:22.277Z,10.80
2018-05-06T09:44:50.028Z,8.43
2018-05-06T09:47:17.726Z,8.47
2018-05-06T09:49:45.531Z,15.40
2018-05-06T09:52:13.216Z,9.37
2018-05-06T09:54:40.972Z,10.27
2018-05-06T09:57:08.660Z,9.57
2018-05-06T09:59:36.560Z,8.23
2018-05-06T10:02:04.276Z,7.70
2018-05-06T10:04:31.947Z,7.78
2018-05-06T10:06:59.663Z,4.20
2018-05-06T10:09:27.327Z,8.85
2018-05-06T10:11:55.168Z,19.77
2018-05-06T10:14:23.159Z,9.32
2018-05-06T10:16:51.106Z,8.52
2018-05-06T10:19:19.091Z,6.90
2018-05-06T10:21:47.161Z,9.57
2018-05-06T10:24:15.037Z,7.55
2018-05-06T10:26:42.899Z,16.02
2018-05-06T10:29:10.865Z,11.70
2018-05-06T10:31:38.753Z,9.07
2018-05-06T10:34:06.573Z,7.20
2018-05-06T10:36:34.438Z,7.15
2018-05-06T10:39:02.457Z,3.10
2018-05-06T10:41:30.521Z,4.75
2018-05-06T10:43:58.658Z,7.27
2018-05-06T10:46:26.667Z,4.03
2018-05-06T10:48:54.335Z,12.85
2018-05-06T10:51:22.069Z,6.12
2018-05-06T10:53:49.768Z,5.87
2018-05-06T10:56:17.466Z,7.22
2018-05-06T10:58:45.185Z,9.25
2018-05-06T11:01:12.900Z,13.02
2018-05-06T11:03:40.909Z,6.00
2018-05-06T11:06:08.983Z,18.27
2018-05-06T11:08:36.851Z,8.00
2018-05-06T11:11:04.692Z,7.12
2018-05-06T11:13:32.649Z,8.13
2018-05-06T11:16:00.643Z,6.03
2018-05-06T11:18:28.510Z,6.30
2018-05-06T11:20:56.263Z,9.23
2018-05-06T11:23:23.960Z,15.75
2018-05-06T11:25:51.650Z,4.65
2018-05-06T11:28:19.459Z,11.38
2018-05-06T11:30:47.323Z,6.72
2018-05-06T11:33:15.157Z,21.30
2018-05-06T11:35:43.188Z,7.12
2018-05-06T11:38:10.928Z,11.82
2018-05-06T11:40:38.644Z,7.95
2018-05-06T11:43:06.425Z,9.40
2018-05-06T11:45:34.111Z,4.55
2018-05-06T11:48:02.124Z,10.82
2018-05-06T11:50:30.172Z,5.20
2018-05-06T11:52:57.881Z,8.47
2018-05-06T11:55:25.920Z,11.77
2018-05-06T11:57:53.985Z,13.68
2018-05-06T12:00:21.910Z,5.63
2018-05-06T12:02:49.923Z,11.43
2018-05-06T12:05:17.659Z,9.57
2018-05-06T12:07:45.678Z,5.40
2018-05-06T12:10:13.548Z,7.57
2018-05-06T12:12:41.591Z,6.93
2018-05-06T12:15:09.464Z,6.18
2018-05-06T12:17:37.182Z,9.50
2018-05-06T12:20:05.196Z,8.68
2018-05-06T12:22:33.063Z,9.82
2018-05-06T12:25:00.883Z,4.85
2018-05-06T12:27:28.996Z,6.35
2018-05-06T12:29:57.053Z,15.07
2018-05-06T12:32:25.113Z,9.77
2018-05-06T12:34:53.074Z,22.80
2018-05-06T12:37:21.068Z,7.50
2018-05-06T12:39:48.946Z,13.77
2018-05-06T12:42:16.820Z,6.57
2018-05-06T12:44:44.720Z,7.62
2018-05-06T12:47:12.540Z,9.23
2018-05-06T12:49:40.385Z,16.33
2018-05-06T12:52:08.227Z,12.70
2018-05-06T12:54:36.095Z,10.43
2018-05-06T12:57:04.226Z,19.03
2018-05-06T12:59:32.177Z,5.43
2018-05-06T13:02:00.022Z,15.77
2018-05-06T13:04:28.110Z,14.00
2018-05-06T13:06:56.307Z,6.23
2018-05-06T13:09:24.271Z,15.43
2018-05-06T13:11:52.114Z,9.27
2018-05-06T13:14:19.980Z,9.73
2018-05-06T13:16:47.695Z,14.97
2018-05-06T13:19:15.648Z,16.97
2018-05-06T13:21:43.506Z,15.80
2018-05-06T13:24:11.427Z,16.43
2018-05-06T13:26:39.457Z,23.63
2018-05-06T13:29:07.460Z,7.27
2018-05-06T13:31:35.253Z,10.73
2018-05-06T13:34:03.240Z,5.23
2018-05-06T13:36:31.161Z,7.97
2018-05-06T13:38:59.193Z,10.80
2018-05-06T13:41:27.125Z,13.63
2018-05-06T13:43:55.131Z,37.03
2018-05-06T13:46:22.785Z,12.50
2018-05-06T13:48:50.855Z,8.13
2018-05-06T13:51:18.546Z,6.50
2018-05-06T13:53:46.381Z,6.53
2018-05-06T13:56:14.008Z,16.97
2018-05-06T13:58:41.585Z,9.00
2018-05-06T14:01:09.158Z,11.83
2018-05-06T14:03:36.819Z,18.23
2018-05-06T14:06:04.445Z,13.30
2018-05-06T14:08:32.127Z,25.93
2018-05-06T14:10:59.796Z,12.10
2018-05-06T14:13:27.472Z,25.70
2018-05-06T14:15:55.162Z,12.13
2018-05-06T14:18:22.986Z,20.47
2018-05-06T14:20:50.637Z,19.73
2018-05-06T14:23:18.316Z,16.00
2018-05-06T14:25:46.045Z,14.80
2018-05-06T14:28:13.624Z,29.03
2018-05-06T14:30:41.218Z,39.63
2018-05-06T14:33:08.950Z,18.13
2018-05-06T14:35:36.519Z,30.53
2018-05-06T14:38:04.300Z,19.33
2018-05-06T14:40:31.920Z,14.10
2018-05-06T14:42:59.523Z,19.23
2018-05-06T14:45:27.277Z,18.70
2018-05-06T14:48:06.547Z,22.53
2018-05-06T14:50:34.132Z,17.53
2018-05-06T14:53:01.744Z,25.23
2018-05-06T14:55:29.368Z,14.83
2018-05-06T14:57:56.940Z,11.33
2018-05-06T15:00:24.521Z,17.73
2018-05-06T15:02:52.141Z,27.03
2018-05-06T15:05:19.752Z,31.07
2018-05-06T15:07:47.514Z,10.37
2018-05-06T15:10:15.151Z,17.93
2018-05-06T15:12:42.760Z,10.13
2018-05-06T15:15:10.397Z,14.77
2018-05-06T15:17:37.998Z,29.57
2018-05-06T15:20:05.566Z,7.90
2018-05-06T15:22:33.179Z,12.97
2018-05-06T15:25:00.790Z,13.70
2018-05-06T15:27:28.504Z,22.77
2018-05-06T15:29:56.078Z,37.13
2018-05-06T15:32:23.844Z,13.40
2018-05-06T15:34:51.406Z,25.93
2018-05-06T15:37:19.153Z,27.77
2018-05-06T15:39:46.763Z,17.53
2018-05-06T15:42:14.347Z,36.87
2018-05-06T15:44:41.929Z,25.23
2018-05-06T15:47:09.519Z,15.50
2018-05-06T15:49:37.093Z,21.33
2018-05-06T15:52:04.669Z,15.93
2018-05-06T15:54:32.290Z,18.03
2018-05-06T15:56:59.864Z,15.63
2018-05-06T15:59:27.431Z,13.43
2018-05-06T16:02:06.923Z,15.27
2018-05-06T16:04:34.492Z,20.30
2018-05-06T16:07:02.052Z,24.37
2018-05-06T16:09:31.795Z,31.03
2018-05-06T16:12:01.385Z,41.63
2018-05-06T16:14:31.604Z,12.43
2018-05-06T16:17:01.873Z,24.57
2018-05-06T16:19:32.311Z,12.20
2018-05-06T16:22:02.693Z,24.73
2018-05-06T16:24:32.914Z,21.60
2018-05-06T16:27:02.478Z,39.17
2018-05-06T16:29:32.470Z,33.43
2018-05-06T16:32:02.100Z,25.37
2018-05-06T16:34:32.233Z,20.53
2018-05-06T16:37:01.231Z,21.03
2018-05-06T16:39:30.279Z,22.63
2018-05-06T16:41:59.287Z,36.33
2018-05-06T16:44:28.992Z,13.70
2018-05-06T16:46:58.662Z,27.40
2018-05-06T16:49:27.802Z,18.27
2018-05-06T16:51:56.780Z,21.20
2018-05-06T16:54:26.635Z,24.80
2018-05-06T16:56:56.790Z,25.50
2018-05-06T16:59:26.243Z,24.47
2018-05-06T17:01:56.072Z,52.73
2018-05-06T17:04:25.369Z,81.73
2018-05-06T17:06:55.222Z,24.47
2018-05-06T17:09:25.329Z,38.17
2018-05-06T17:11:55.489Z,12.37
2018-05-06T17:14:25.031Z,11.93
2018-05-06T17:16:54.316Z,15.13
2018-05-06T17:19:24.089Z,38.77
2018-05-06T17:21:51.777Z,12.03
2018-05-06T17:24:19.377Z,17.60
2018-05-06T17:26:46.999Z,11.10
2018-05-06T17:29:14.568Z,11.03
2018-05-06T17:31:42.191Z,19.93
2018-05-06T17:34:09.800Z,5.53
2018-05-06T17:36:37.352Z,10.73
2018-05-06T17:39:05.730Z,9.90
2018-05-06T17:41:33.332Z,10.13
2018-05-06T17:44:00.932Z,13.37
2018-05-06T17:46:28.521Z,13.77
2018-05-06T17:48:56.125Z,24.17
2018-05-06T17:51:23.711Z,12.87
2018-05-06T17:53:51.282Z,16.97
2018-05-06T17:56:18.899Z,13.23
2018-05-06T17:58:46.462Z,15.93
2018-05-06T18:01:14.026Z,5.90
2018-05-06T18:03:41.636Z,7.50
2018-05-06T18:06:09.207Z,7.33
2018-05-06T18:08:36.985Z,15.47
2018-05-06T18:11:04.660Z,17.17
2018-05-06T18:13:32.314Z,17.90
2018-05-06T18:15:59.891Z,7.13
2018-05-06T18:18:27.511Z,9.50
2018-05-06T18:20:55.080Z,11.30
2018-05-06T18:23:22.654Z,32.83
2018-05-06T18:25:50.619Z,18.77
2018-05-06T18:28:18.459Z,10.47
2018-05-06T18:30:46.043Z,18.20
2018-05-06T18:33:13.650Z,7.57
2018-05-06T18:35:41.225Z,13.07
2018-05-06T18:38:08.929Z,9.43
2018-05-06T18:40:36.605Z,10.70
2018-05-06T18:43:04.257Z,19.60
2018-05-06T18:45:31.821Z,14.23
2018-05-06T18:47:59.596Z,13.97
2018-05-06T18:50:27.256Z,11.63
2018-05-06T18:52:54.843Z,28.43
2018-05-06T18:55:22.453Z,11.60
2018-05-06T18:57:50.227Z,12.50
2018-05-06T19:00:17.790Z,14.33
2018-05-06T19:02:45.415Z,15.47
2018-05-06T19:05:13.223Z,17.67
2018-05-06T19:07:40.892Z,9.30
2018-05-06T19:10:08.535Z,12.37
2018-05-06T19:12:36.114Z,19.83
2018-05-06T19:15:03.936Z,29.83
2018-05-06T19:17:31.726Z,17.70
2018-05-06T19:19:59.303Z,11.20
2018-05-06T19:22:27.069Z,11.00
2018-05-06T19:24:54.736Z,19.07
2018-05-06T19:27:22.345Z,9.80
2018-05-06T19:29:50.034Z,16.80
2018-05-06T19:32:17.795Z,16.13
2018-05-06T19:34:45.379Z,9.77
2018-05-06T19:37:13.022Z,12.83
2018-05-06T19:39:46.344Z,13.03
2018-05-06T19:42:14.101Z,11.97
2018-05-06T19:44:43.361Z,11.40
2018-05-06T19:47:10.971Z,18.80
2018-05-06T19:49:38.550Z,25.70
2018-05-06T19:52:06.175Z,17.30
2018-05-06T19:54:34.010Z,14.50
2018-05-06T19:57:01.647Z,13.50
2018-05-06T19:59:29.365Z,17.77
2018-05-06T20:01:57.038Z,24.97
2018-05-06T20:04:24.695Z,15.60
2018-05-06T20:06:52.278Z,10.23
2018-05-06T20:09:20.012Z,12.40
2018-05-06T20:11:47.583Z,8.50
2018-05-06T20:14:15.165Z,16.50
2018-05-06T20:16:42.781Z,11.27
2018-05-06T20:19:10.454Z,12.40
2018-05-06T20:21:38.145Z,12.53
2018-05-06T20:24:05.791Z,17.57
2018-05-06T20:26:33.445Z,14.00
2018-05-06T20:29:01.110Z,12.73
2018-05-06T20:31:28.847Z,10.40
2018-05-06T20:33:56.439Z,12.03
2018-05-06T20:36:24.019Z,28.30
2018-05-06T20:38:51.750Z,20.57
2018-05-06T20:41:19.432Z,12.77
2018-05-06T20:43:47.036Z,15.73
2018-05-06T20:46:14.737Z,26.33
2018-05-06T20:48:42.311Z,10.90
2018-05-06T20:51:10.050Z,18.03
2018-05-06T20:53:37.732Z,19.83
2018-05-06T20:56:05.322Z,12.23
2018-05-06T20:58:33.049Z,11.17
2018-05-06T21:01:00.662Z,14.03
2018-05-06T21:03:28.375Z,9.60
2018-05-06T21:05:55.955Z,13.20
2018-05-06T21:08:23.564Z,16.60
2018-05-06T21:10:51.140Z,25.17
2018-05-06T21:13:18.708Z,7.77
2018-05-06T21:15:46.310Z,9.53
2018-05-06T21:18:13.880Z,16.93
2018-05-06T21:20:41.442Z,11.27
2018-05-06T21:23:09.259Z,7.73
2018-05-06T21:25:36.939Z,12.63
2018-05-06T21:28:04.602Z,16.73
2018-05-06T21:30:32.279Z,11.53
2018-05-06T21:32:59.952Z,20.53
2018-05-06T21:35:27.488Z,14.97
2018-05-06T21:37:55.231Z,15.67
2018-05-06T21:40:22.799Z,9.93
2018-05-06T21:42:50.411Z,11.60
2018-05-06T21:45:18.224Z,15.93
2018-05-06T21:47:45.882Z,19.80
2018-05-06T21:50:13.559Z,10.63
2018-05-06T21:52:41.183Z,19.40
2018-05-06T21:55:08.758Z,22.23
2018-05-06T21:57:36.327Z,15.47
2018-05-06T22:00:03.964Z,21.47
2018-05-06T22:02:31.653Z,20.47
2018-05-06T22:04:59.228Z,12.80
2018-05-06T22:07:26.894Z,15.93
2018-05-06T22:09:54.459Z,19.53
2018-05-06T22:12:22.043Z,15.60
2018-05-06T22:14:49.672Z,18.23
2018-05-06T22:17:17.423Z,21.63
2018-05-06T22:19:44.998Z,18.40
2018-05-06T22:22:12.615Z,16.67
2018-05-06T22:24:40.206Z,16.20
2018-05-06T22:27:07.873Z,25.70
2018-05-06T22:29:35.479Z,14.83
2018-05-06T22:32:03.067Z,13.60
2018-05-06T22:34:30.647Z,17.83
2018-05-06T22:36:58.271Z,21.97
2018-05-06T22:39:25.841Z,18.33
2018-05-06T22:41:53.426Z,23.20
2018-05-06T22:44:21.038Z,20.27
2018-05-06T22:46:48.761Z,10.83
2018-05-06T22:49:16.370Z,25.40
2018-05-06T22:51:44.088Z,15.63
2018-05-06T22:54:11.609Z,33.47
2018-05-06T22:56:39.404Z,11.23
2018-05-06T22:59:07.078Z,16.20
2018-05-06T23:01:34.906Z,12.40
2018-05-06T23:04:02.595Z,30.73
2018-05-06T23:06:30.254Z,16.50
2018-05-06T23:08:57.905Z,16.63
2018-05-06T23:11:25.601Z,17.00
2018-05-06T23:13:53.238Z,18.13
2018-05-06T23:16:20.851Z,9.40
2018-05-06T23:18:48.437Z,14.27
2018-05-06T23:21:16.048Z,28.37
2018-05-06T23:23:43.887Z,18.60
2018-05-06T23:26:11.459Z,12.30
2018-05-06T23:28:39.070Z,23.43
2018-05-06T23:31:06.686Z,19.00
2018-05-06T23:33:34.266Z,25.83
2018-05-06T23:36:01.895Z,22.43
2018-05-06T23:38:29.667Z,22.70
2018-05-06T23:40:57.323Z,27.83
2018-05-06T23:43:24.978Z,16.93
2018-05-06T23:45:52.555Z,31.87
2018-05-06T23:48:20.139Z,18.90
2018-05-06T23:50:47.754Z,24.30
2018-05-06T23:53:15.319Z,21.20
2018-05-06T23:55:42.900Z,25.67
2018-05-06T23:58:10.536Z,17.77
